Time;durP1;ratioP1;P1;durP2;ratioP2;P2;SDS_P1;SDS_P2;PMS_P1;PMS_P2;Temp;Humidity;BMP_temperature;BMP_pressure;BME280_temperature;BME280_humidity;BME280_pressure;Samples;Min_cycle;Max_cycle;Signal;HPM_P1;HPM_P2
2021/09/22 00:02:14;;;;;;;16.07;7.93;;;14.70;65.60;;;;;;5074678;28;20469;-73
2021/09/22 00:04:40;;;;;;;14.67;7.70;;;14.70;65.60;;;;;;5076125;28;20455;-73
2021/09/22 00:07:09;;;;;;;8.37;6.80;;;14.70;65.80;;;;;;5075636;28;21000;-73
2021/09/22 00:09:35;;;;;;;10.47;7.70;;;14.60;65.70;;;;;;5076060;28;20440;-73
2021/09/22 00:12:02;;;;;;;9.10;6.50;;;14.60;65.90;;;;;;5075579;28;20480;-73
2021/09/22 00:14:29;;;;;;;13.90;6.90;;;14.60;65.80;;;;;;5076586;28;20456;-76
2021/09/22 00:16:56;;;;;;;11.57;8.77;;;14.60;65.80;;;;;;5075913;28;20459;-76
2021/09/22 00:19:23;;;;;;;8.90;6.77;;;14.50;65.70;;;;;;5075906;28;20471;-76
2021/09/22 00:21:49;;;;;;;11.17;7.07;;;14.50;65.60;;;;;;5075710;28;20456;-76
2021/09/22 00:24:17;;;;;;;7.27;6.43;;;14.50;65.50;;;;;;5075729;28;20444;-76
2021/09/22 00:26:45;;;;;;;8.07;6.43;;;14.50;65.60;;;;;;5075704;28;20481;-76
2021/09/22 00:29:11;;;;;;;9.57;6.43;;;14.40;65.60;;;;;;5075872;28;20480;-76
2021/09/22 00:31:38;;;;;;;12.80;6.30;;;14.30;65.60;;;;;;5075264;28;20835;-76
2021/09/22 00:34:05;;;;;;;9.93;6.80;;;14.30;65.60;;;;;;5075458;28;20445;-76
2021/09/22 00:36:32;;;;;;;9.30;6.43;;;14.30;65.70;;;;;;5075641;28;20467;-76
2021/09/22 00:38:59;;;;;;;7.67;6.80;;;14.30;65.70;;;;;;5075709;28;20459;-76
2021/09/22 00:41:28;;;;;;;7.67;5.83;;;14.30;65.60;;;;;;5075576;28;20445;-76
2021/09/22 00:43:54;;;;;;;8.23;6.13;;;14.20;65.50;;;;;;5075740;28;20445;-76
2021/09/22 00:46:21;;;;;;;8.67;7.70;;;14.20;65.50;;;;;;5075326;28;20487;-76
2021/09/22 00:48:48;;;;;;;8.63;6.27;;;14.20;65.50;;;;;;5075683;28;20441;-76
2021/09/22 00:51:15;;;;;;;6.77;6.07;;;14.20;65.60;;;;;;5075386;28;20453;-75
2021/09/22 00:53:42;;;;;;;10.43;6.17;;;14.20;65.70;;;;;;5075426;28;20456;-76
2021/09/22 00:56:08;;;;;;;15.67;6.77;;;14.20;65.70;;;;;;5075427;28;20444;-75
2021/09/22 00:58:37;;;;;;;14.17;6.00;;;14.20;65.80;;;;;;5074938;28;20448;-77
2021/09/22 01:01:04;;;;;;;8.67;5.80;;;14.20;65.70;;;;;;5075099;28;20453;-75
2021/09/22 01:03:31;;;;;;;8.80;6.40;;;14.20;65.70;;;;;;5074971;28;20572;-75
2021/09/22 01:06:00;;;;;;;8.87;6.07;;;14.20;65.80;;;;;;5074850;28;21021;-76
2021/09/22 01:08:27;;;;;;;10.43;6.57;;;14.10;65.80;;;;;;5075028;28;20455;-77
2021/09/22 01:10:54;;;;;;;11.00;6.70;;;14.10;66.10;;;;;;5075016;28;20441;-76
2021/09/22 01:13:21;;;;;;;8.53;6.43;;;14.10;66.20;;;;;;5074097;28;20472;-77
2021/09/22 01:15:49;;;;;;;9.60;7.17;;;14.00;66.10;;;;;;5074764;28;20449;-76
2021/09/22 01:18:18;;;;;;;9.97;6.00;;;14.00;66.20;;;;;;5074485;28;20809;-76
2021/09/22 01:20:47;;;;;;;14.10;5.60;;;13.90;65.90;;;;;;5074668;28;20526;-76
2021/09/22 01:23:16;;;;;;;11.67;6.30;;;13.90;65.90;;;;;;5074680;28;20503;-76
2021/09/22 01:25:45;;;;;;;9.00;6.10;;;13.90;65.80;;;;;;5074457;28;20450;-76
2021/09/22 01:28:13;;;;;;;14.27;6.40;;;13.80;65.80;;;;;;5074542;28;20448;-76
2021/09/22 01:30:41;;;;;;;12.37;6.43;;;13.80;66.00;;;;;;5074448;28;20452;-76
2021/09/22 01:33:09;;;;;;;12.87;6.00;;;13.70;65.90;;;;;;5074095;28;20468;-76
2021/09/22 01:35:39;;;;;;;13.17;7.23;;;13.70;66.00;;;;;;5074427;28;20444;-76
2021/09/22 01:38:08;;;;;;;17.80;6.10;;;13.70;66.00;;;;;;5074354;28;20460;-76
2021/09/22 01:40:36;;;;;;;10.80;5.20;;;13.60;66.10;;;;;;5074296;28;20444;-76
2021/09/22 01:43:04;;;;;;;13.30;6.00;;;13.60;66.00;;;;;;5074219;28;20472;-76
2021/09/22 01:45:32;;;;;;;12.17;6.27;;;13.60;66.00;;;;;;5073896;28;20480;-76
2021/09/22 01:47:59;;;;;;;10.00;6.47;;;13.60;66.20;;;;;;5074091;28;20503;-76
2021/09/22 01:50:26;;;;;;;10.30;6.03;;;13.60;66.30;;;;;;5074080;28;20441;-76
2021/09/22 01:52:54;;;;;;;21.60;7.27;;;13.50;66.10;;;;;;5074122;28;20822;-76
2021/09/22 01:55:23;;;;;;;10.17;5.77;;;13.50;66.20;;;;;;5074075;28;20452;-76
2021/09/22 01:57:51;;;;;;;9.67;5.80;;;13.50;66.20;;;;;;5074114;28;20443;-76
2021/09/22 02:00:18;;;;;;;11.53;5.67;;;13.50;66.40;;;;;;5073741;28;20946;-76
2021/09/22 02:02:45;;;;;;;9.53;5.43;;;13.50;66.30;;;;;;5073821;28;20469;-76
2021/09/22 02:05:12;;;;;;;11.13;5.43;;;13.40;66.30;;;;;;5073618;28;20824;-76
2021/09/22 02:07:39;;;;;;;10.20;5.13;;;13.50;66.40;;;;;;5073715;28;20480;-76
2021/09/22 02:10:07;;;;;;;7.73;5.10;;;13.40;66.30;;;;;;5073669;28;20474;-76
2021/09/22 02:12:34;;;;;;;20.90;6.20;;;13.40;66.30;;;;;;5073484;28;20483;-76
2021/09/22 02:15:04;;;;;;;16.57;5.90;;;13.40;66.30;;;;;;5073793;28;20455;-76
2021/09/22 02:17:31;;;;;;;10.10;5.20;;;13.40;66.50;;;;;;5073646;28;20441;-76
2021/09/22 02:19:57;;;;;;;13.57;5.20;;;13.40;66.50;;;;;;5073736;28;20436;-76
2021/09/22 02:22:24;;;;;;;12.17;5.03;;;13.30;66.50;;;;;;5073571;28;20464;-76
2021/09/22 02:24:51;;;;;;;10.50;5.50;;;13.30;66.60;;;;;;5072820;28;20448;-76
2021/09/22 02:27:19;;;;;;;11.27;5.77;;;13.30;66.70;;;;;;5073709;28;20507;-77
2021/09/22 02:29:47;;;;;;;10.77;5.30;;;13.30;66.70;;;;;;5073528;28;20474;-76
2021/09/22 02:32:15;;;;;;;13.43;6.20;;;13.30;66.80;;;;;;5073122;28;20475;-76
2021/09/22 02:34:42;;;;;;;8.50;5.43;;;13.20;66.70;;;;;;5073466;28;20445;-76
2021/09/22 02:37:09;;;;;;;9.03;5.83;;;13.20;67.00;;;;;;5074231;28;20746;-76
2021/09/22 02:39:36;;;;;;;12.93;6.20;;;13.20;67.20;;;;;;5073141;28;20447;-76
2021/09/22 02:42:03;;;;;;;12.87;5.50;;;13.10;67.10;;;;;;5073039;28;20977;-76
2021/09/22 02:44:30;;;;;;;13.70;5.90;;;13.10;67.20;;;;;;5073133;28;20444;-76
2021/09/22 02:46:57;;;;;;;12.60;6.10;;;13.10;67.10;;;;;;5073276;28;20508;-76
2021/09/22 02:49:25;;;;;;;16.70;6.93;;;13.10;66.90;;;;;;5073352;28;20444;-76
2021/09/22 02:51:52;;;;;;;15.60;6.00;;;13.10;66.80;;;;;;5073225;28;20468;-76
2021/09/22 02:54:19;;;;;;;12.03;5.80;;;13.00;66.70;;;;;;5073337;28;20449;-76
2021/09/22 02:56:45;;;;;;;9.63;5.73;;;13.00;66.70;;;;;;5073562;28;20447;-76
2021/09/22 02:59:13;;;;;;;14.83;6.30;;;12.90;66.60;;;;;;5073291;28;20445;-76
2021/09/22 03:01:40;;;;;;;18.70;6.60;;;12.90;66.70;;;;;;5073178;28;20468;-76
2021/09/22 03:04:06;;;;;;;13.07;6.87;;;12.90;66.60;;;;;;5073789;28;20511;-76
2021/09/22 03:06:34;;;;;;;14.23;5.63;;;12.90;66.80;;;;;;5072803;28;21012;-76
2021/09/22 03:09:01;;;;;;;12.00;5.77;;;12.80;67.10;;;;;;5072880;28;20436;-76
2021/09/22 03:11:28;;;;;;;12.90;5.60;;;12.80;67.20;;;;;;5073315;28;20456;-76
2021/09/22 03:13:55;;;;;;;17.23;6.23;;;12.80;67.30;;;;;;5073155;28;20428;-76
2021/09/22 03:16:22;;;;;;;20.53;6.37;;;12.70;67.20;;;;;;5073063;28;20511;-76
2021/09/22 03:18:49;;;;;;;21.57;5.67;;;12.70;67.20;;;;;;5074167;28;20448;-76
2021/09/22 03:21:16;;;;;;;15.03;5.97;;;12.70;67.00;;;;;;5072765;28;20949;-76
2021/09/22 03:23:44;;;;;;;14.13;6.10;;;12.70;67.20;;;;;;5073154;28;20444;-76
2021/09/22 03:26:11;;;;;;;15.90;5.70;;;12.60;67.00;;;;;;5073458;28;20767;-76
2021/09/22 03:28:38;;;;;;;14.83;5.90;;;12.60;67.10;;;;;;5072727;28;21009;-76
2021/09/22 03:31:05;;;;;;;12.03;5.67;;;12.60;67.20;;;;;;5072760;28;20925;-76
2021/09/22 03:33:31;;;;;;;20.03;6.27;;;12.50;67.00;;;;;;5072770;28;20989;-76
2021/09/22 03:35:58;;;;;;;12.93;6.17;;;12.50;67.10;;;;;;5074603;28;20440;-76
2021/09/22 03:38:25;;;;;;;13.13;5.90;;;12.50;67.20;;;;;;5076338;28;20938;-76
2021/09/22 03:40:53;;;;;;;11.03;5.50;;;12.50;67.10;;;;;;5076640;28;20455;-76
2021/09/22 03:43:21;;;;;;;18.97;6.40;;;12.50;67.20;;;;;;5076684;28;20876;-76
2021/09/22 03:45:48;;;;;;;13.10;6.30;;;12.50;67.20;;;;;;5076676;28;20444;-76
2021/09/22 03:48:14;;;;;;;14.77;5.70;;;12.50;68.20;;;;;;5076451;28;20480;-76
2021/09/22 03:50:41;;;;;;;20.33;6.47;;;12.50;67.30;;;;;;5076483;28;20448;-76
2021/09/22 03:53:08;;;;;;;13.27;6.10;;;12.50;67.30;;;;;;5076284;28;20478;-76
2021/09/22 03:55:35;;;;;;;18.83;7.47;;;12.50;67.40;;;;;;5076432;28;20448;-76
2021/09/22 03:58:03;;;;;;;15.70;6.10;;;12.40;67.60;;;;;;5076270;28;20449;-76
2021/09/22 04:00:30;;;;;;;18.93;6.80;;;12.50;67.70;;;;;;5076253;28;20463;-76
2021/09/22 04:02:56;;;;;;;11.23;6.77;;;12.40;67.70;;;;;;5076253;28;20469;-76
2021/09/22 04:05:23;;;;;;;16.50;5.93;;;12.40;67.70;;;;;;5076077;28;20448;-76
2021/09/22 04:07:50;;;;;;;14.50;5.80;;;12.50;67.90;;;;;;5076018;28;20499;-76
2021/09/22 04:10:17;;;;;;;20.07;6.90;;;12.40;67.80;;;;;;5076125;28;20540;-76
2021/09/22 04:12:44;;;;;;;14.57;5.80;;;12.40;67.80;;;;;;5075636;28;20476;-76
2021/09/22 04:15:12;;;;;;;13.83;7.10;;;12.40;68.00;;;;;;5075981;28;20445;-76
2021/09/22 04:17:39;;;;;;;16.13;6.90;;;12.40;67.90;;;;;;5075982;28;20444;-76
2021/09/22 04:20:07;;;;;;;9.93;6.07;;;12.40;67.80;;;;;;5075527;28;20950;-76
2021/09/22 04:22:34;;;;;;;8.63;6.50;;;12.40;67.80;;;;;;5075865;28;20469;-76
2021/09/22 04:25:01;;;;;;;14.03;7.20;;;12.40;67.80;;;;;;5075532;28;21052;-76
2021/09/22 04:27:28;;;;;;;12.93;5.63;;;12.30;67.80;;;;;;5075647;28;20480;-76
2021/09/22 04:29:55;;;;;;;9.67;5.90;;;12.30;67.80;;;;;;5075725;28;20780;-76
2021/09/22 04:32:23;;;;;;;11.90;6.63;;;12.30;68.00;;;;;;5075557;28;20465;-76
2021/09/22 04:34:49;;;;;;;13.63;5.67;;;12.40;68.20;;;;;;5075262;28;20948;-76
2021/09/22 04:37:16;;;;;;;15.53;7.83;;;12.40;68.00;;;;;;5075564;28;20490;-77
2021/09/22 04:39:43;;;;;;;16.67;6.53;;;12.30;68.00;;;;;;5075484;28;20535;-75
2021/09/22 04:42:10;;;;;;;12.47;6.30;;;12.30;68.30;;;;;;5075400;28;20471;-77
2021/09/22 04:44:37;;;;;;;12.93;7.50;;;12.30;68.50;;;;;;5076117;28;20444;-75
2021/09/22 04:47:04;;;;;;;17.07;6.90;;;12.30;68.60;;;;;;5074606;28;20476;-77
2021/09/22 04:49:33;;;;;;;13.30;6.77;;;12.30;68.90;;;;;;5075832;28;20800;-77
2021/09/22 04:51:59;;;;;;;10.57;7.10;;;12.30;68.80;;;;;;5075191;28;20465;-77
2021/09/22 04:54:26;;;;;;;14.40;7.03;;;12.30;68.80;;;;;;5075213;28;20452;-77
2021/09/22 04:56:53;;;;;;;18.07;8.37;;;12.30;69.10;;;;;;5074828;28;20984;-76
2021/09/22 04:59:20;;;;;;;14.73;8.20;;;12.30;69.20;;;;;;5075095;28;20451;-76
2021/09/22 05:01:47;;;;;;;15.07;7.77;;;12.20;69.30;;;;;;5075000;28;20472;-76
2021/09/22 05:04:14;;;;;;;13.00;7.30;;;12.20;70.20;;;;;;5075017;28;20445;-76
2021/09/22 05:06:42;;;;;;;15.10;7.80;;;12.20;69.50;;;;;;5074961;28;20449;-76
2021/09/22 05:09:09;;;;;;;11.37;7.10;;;12.30;69.70;;;;;;5074885;28;20554;-76
2021/09/22 05:11:36;;;;;;;16.10;7.63;;;12.30;69.60;;;;;;5074682;28;20496;-76
2021/09/22 05:14:03;;;;;;;15.20;7.87;;;12.20;69.60;;;;;;5075424;28;20447;-77
2021/09/22 05:16:29;;;;;;;12.77;7.13;;;12.30;69.80;;;;;;5074367;28;20938;-77
2021/09/22 05:18:56;;;;;;;11.27;7.13;;;12.20;69.90;;;;;;5074686;28;20528;-76
2021/09/22 05:21:23;;;;;;;18.93;8.27;;;12.20;70.00;;;;;;5074324;28;20884;-75
2021/09/22 05:23:51;;;;;;;15.53;7.57;;;12.20;70.10;;;;;;5074414;28;20957;-74
2021/09/22 05:26:18;;;;;;;11.67;7.00;;;12.20;70.20;;;;;;5074272;28;20452;-75
2021/09/22 05:28:45;;;;;;;17.67;7.43;;;12.20;70.30;;;;;;5074455;28;20479;-75
2021/09/22 05:31:12;;;;;;;16.97;8.07;;;12.20;70.40;;;;;;5074099;28;20444;-75
2021/09/22 05:33:39;;;;;;;10.70;6.83;;;12.20;70.60;;;;;;5074338;28;20464;-75
2021/09/22 05:36:06;;;;;;;11.93;7.17;;;12.20;70.80;;;;;;5074115;28;20952;-75
2021/09/22 05:38:33;;;;;;;14.37;8.00;;;12.20;70.70;;;;;;5074734;28;20447;-76
2021/09/22 05:41:01;;;;;;;13.43;7.37;;;12.20;70.90;;;;;;5075183;28;20444;-78
2021/09/22 05:43:28;;;;;;;12.17;7.43;;;12.20;71.00;;;;;;5074845;28;20552;-80
2021/09/22 05:45:54;;;;;;;14.07;7.43;;;12.20;71.20;;;;;;5074199;28;20437;-76
2021/09/22 05:48:21;;;;;;;16.33;8.03;;;12.20;71.30;;;;;;5073583;28;20985;-76
2021/09/22 05:50:48;;;;;;;9.97;8.30;;;12.20;71.20;;;;;;5074060;28;20429;-76
2021/09/22 05:53:14;;;;;;;13.63;7.33;;;12.20;71.20;;;;;;5073950;28;20460;-76
2021/09/22 05:55:41;;;;;;;10.27;7.67;;;12.20;71.30;;;;;;5073959;28;20440;-75
2021/09/22 05:58:09;;;;;;;12.90;8.07;;;12.20;71.30;;;;;;5073661;28;20785;-76
2021/09/22 06:00:36;;;;;;;12.40;8.40;;;12.30;71.30;;;;;;5073887;28;20444;-76
2021/09/22 06:03:07;;;;;;;10.77;7.20;;;12.30;71.20;;;;;;5073800;28;20461;-76
2021/09/22 06:05:34;;;;;;;9.10;7.80;;;12.30;71.20;;;;;;5073668;28;20447;-76
2021/09/22 06:08:01;;;;;;;10.20;7.40;;;12.30;71.30;;;;;;5073776;28;20465;-76
2021/09/22 06:10:27;;;;;;;10.33;7.97;;;12.30;71.40;;;;;;5073733;28;20449;-76
2021/09/22 06:12:54;;;;;;;14.50;8.00;;;12.30;71.70;;;;;;5073319;28;20488;-76
2021/09/22 06:15:24;;;;;;;15.87;8.13;;;12.40;72.20;;;;;;5073788;28;20425;-76
2021/09/22 06:17:50;;;;;;;10.63;6.80;;;12.40;72.30;;;;;;5075009;28;20962;-77
2021/09/22 06:20:17;;;;;;;9.10;6.90;;;12.40;72.40;;;;;;5074754;28;20448;-77
2021/09/22 06:22:44;;;;;;;11.53;6.90;;;12.40;72.40;;;;;;5074587;28;20491;-77
2021/09/22 06:25:13;;;;;;;11.83;5.90;;;12.40;72.30;;;;;;5074147;28;20437;-77
2021/09/22 06:27:40;;;;;;;11.30;6.97;;;12.40;72.40;;;;;;5074028;28;20848;-77
2021/09/22 06:30:08;;;;;;;13.87;7.00;;;12.40;72.30;;;;;;5073799;28;20444;-77
2021/09/22 06:32:36;;;;;;;16.20;7.50;;;12.40;72.40;;;;;;5073873;28;20460;-77
2021/09/22 06:35:03;;;;;;;12.03;6.37;;;12.50;72.80;;;;;;5074279;28;20452;-77
2021/09/22 06:37:30;;;;;;;12.43;6.90;;;12.40;73.10;;;;;;5075311;28;20452;-78
2021/09/22 06:39:56;;;;;;;11.50;7.17;;;12.40;73.50;;;;;;5074958;28;20448;-78
2021/09/22 06:42:23;;;;;;;12.43;8.57;;;12.50;73.90;;;;;;5075145;28;20472;-77
2021/09/22 06:44:50;;;;;;;16.03;8.10;;;12.50;74.30;;;;;;5076219;28;20444;-77
2021/09/22 06:47:17;;;;;;;17.37;8.77;;;12.50;74.40;;;;;;5075896;28;20432;-77
2021/09/22 06:49:45;;;;;;;21.93;8.70;;;12.60;74.70;;;;;;5075908;28;20441;-77
2021/09/22 06:52:12;;;;;;;19.13;7.40;;;12.60;75.30;;;;;;5074994;28;20543;-78
2021/09/22 06:54:40;;;;;;;20.57;8.77;;;12.60;75.60;;;;;;5075523;28;20447;-77
2021/09/22 06:57:07;;;;;;;20.03;7.90;;;12.70;76.00;;;;;;5075393;28;20531;-77
2021/09/22 06:59:33;;;;;;;20.17;9.33;;;12.70;76.30;;;;;;5075301;28;20891;-78
2021/09/22 07:02:00;;;;;;;12.50;7.93;;;12.80;76.60;;;;;;5075056;28;20468;-77
2021/09/22 07:04:28;;;;;;;15.63;7.83;;;12.90;77.00;;;;;;5074493;28;20437;-77
2021/09/22 07:06:56;;;;;;;12.80;9.40;;;13.00;77.40;;;;;;5074419;28;20451;-77
2021/09/22 07:09:22;;;;;;;12.90;8.33;;;13.00;77.70;;;;;;5074277;28;20488;-77
2021/09/22 07:11:49;;;;;;;14.57;9.10;;;13.10;77.80;;;;;;5076909;28;21020;-77
2021/09/22 07:14:16;;;;;;;14.83;7.93;;;13.20;77.80;;;;;;5077359;28;20428;-77
2021/09/22 07:16:42;;;;;;;13.07;9.33;;;13.30;77.80;;;;;;5077197;28;20456;-77
2021/09/22 07:19:09;;;;;;;22.40;9.37;;;13.40;77.80;;;;;;5076951;28;20440;-77
2021/09/22 07:21:36;;;;;;;10.67;9.57;;;13.50;77.90;;;;;;5076753;28;21050;-76
2021/09/22 07:24:05;;;;;;;16.87;9.37;;;13.70;77.40;;;;;;5077583;28;20788;-77
2021/09/22 07:26:32;;;;;;;16.87;8.83;;;13.80;77.50;;;;;;5077624;28;20535;-77
2021/09/22 07:28:59;;;;;;;17.70;11.27;;;13.90;77.00;;;;;;5078584;28;20569;-77
2021/09/22 07:31:26;;;;;;;17.83;10.50;;;14.00;76.50;;;;;;5078380;28;20448;-77
2021/09/22 07:33:54;;;;;;;22.50;10.40;;;14.20;76.30;;;;;;5077628;28;20452;-77
2021/09/22 07:36:20;;;;;;;17.40;10.77;;;14.30;76.00;;;;;;5077567;28;20456;-77
2021/09/22 07:38:47;;;;;;;18.80;11.27;;;14.40;75.70;;;;;;5080209;28;20432;-77
2021/09/22 07:41:15;;;;;;;17.00;11.43;;;14.50;75.40;;;;;;5078925;28;20450;-78
2021/09/22 07:43:42;;;;;;;13.80;11.30;;;14.60;74.50;;;;;;5078827;28;20464;-77
2021/09/22 07:46:09;;;;;;;14.43;11.60;;;14.70;74.10;;;;;;5077945;28;20930;-77
2021/09/22 07:48:36;;;;;;;13.90;11.13;;;14.90;74.00;;;;;;5076972;28;20968;-76
2021/09/22 07:51:03;;;;;;;19.83;12.60;;;15.00;73.90;;;;;;5076413;28;20444;-76
2021/09/22 07:53:30;;;;;;;20.63;13.17;;;15.10;73.50;;;;;;5076264;28;20487;-76
2021/09/22 07:55:56;;;;;;;16.33;13.20;;;15.30;72.50;;;;;;5076211;28;20445;-77
2021/09/22 07:58:24;;;;;;;23.13;14.53;;;15.40;71.60;;;;;;5076456;28;20421;-77
2021/09/22 08:00:51;;;;;;;19.47;13.07;;;15.60;70.90;;;;;;5076147;28;20444;-77
2021/09/22 08:03:18;;;;;;;26.00;16.33;;;15.70;69.80;;;;;;5076209;28;20479;-77
2021/09/22 08:05:45;;;;;;;20.90;16.87;;;15.90;69.10;;;;;;5076557;28;20437;-77
2021/09/22 08:08:11;;;;;;;19.87;15.40;;;16.00;68.90;;;;;;5077280;28;20507;-77
2021/09/22 08:10:39;;;;;;;29.57;17.00;;;16.10;67.90;;;;;;5076851;28;20432;-78
2021/09/22 08:13:06;;;;;;;28.97;18.67;;;16.20;67.70;;;;;;5076572;28;21003;-77
2021/09/22 08:15:34;;;;;;;22.87;16.23;;;16.30;67.60;;;;;;5076792;28;20453;-77
2021/09/22 08:18:01;;;;;;;17.97;11.27;;;16.40;66.80;;;;;;5078018;28;20452;-77
2021/09/22 08:20:28;;;;;;;19.87;14.73;;;16.60;66.50;;;;;;5078187;28;20413;-77
2021/09/22 08:22:55;;;;;;;17.20;13.97;;;16.70;65.80;;;;;;5076422;28;21005;-78
2021/09/22 08:25:22;;;;;;;18.13;13.40;;;16.80;65.40;;;;;;5077414;28;20436;-78
2021/09/22 08:27:49;;;;;;;16.87;15.07;;;17.00;64.80;;;;;;5077290;28;20433;-78
2021/09/22 08:30:16;;;;;;;17.70;12.00;;;17.10;64.00;;;;;;5077855;28;20444;-78
2021/09/22 08:32:44;;;;;;;22.57;13.03;;;17.30;62.90;;;;;;5078438;28;20464;-77
2021/09/22 08:35:12;;;;;;;17.03;12.50;;;17.40;62.50;;;;;;5078410;28;20440;-78
2021/09/22 08:37:39;;;;;;;15.70;11.40;;;17.60;62.50;;;;;;5075784;28;20441;-76
2021/09/22 08:40:08;;;;;;;20.23;13.13;;;17.80;61.90;;;;;;5074992;28;20963;-76
2021/09/22 08:42:35;;;;;;;19.53;14.07;;;17.90;60.80;;;;;;5074997;28;20465;-76
2021/09/22 08:45:02;;;;;;;18.57;12.80;;;18.10;60.20;;;;;;5075215;28;20795;-77
2021/09/22 08:47:29;;;;;;;13.93;11.93;;;18.20;59.70;;;;;;5075766;28;20467;-77
2021/09/22 08:49:57;;;;;;;13.23;9.93;;;18.30;59.30;;;;;;5075123;28;20480;-76
2021/09/22 08:52:24;;;;;;;12.87;9.73;;;18.40;58.80;;;;;;5075213;28;20457;-77
2021/09/22 08:54:51;;;;;;;11.50;10.00;;;18.50;59.00;;;;;;5074854;28;20448;-77
2021/09/22 08:57:18;;;;;;;11.43;10.00;;;18.70;58.70;;;;;;5075113;28;20758;-76
2021/09/22 08:59:45;;;;;;;9.70;8.00;;;18.80;58.70;;;;;;5074889;28;20822;-75
2021/09/22 09:02:14;;;;;;;9.97;7.73;;;19.00;58.50;;;;;;5076535;28;20475;-78
2021/09/22 09:04:43;;;;;;;10.10;8.97;;;19.10;58.20;;;;;;5076276;28;20453;-78
2021/09/22 09:07:12;;;;;;;11.30;9.50;;;19.20;58.10;;;;;;5075770;28;20444;-77
2021/09/22 09:09:41;;;;;;;11.07;9.93;;;19.30;57.70;;;;;;5075068;28;20484;-77
2021/09/22 09:12:19;;;;;;;12.13;8.80;;;19.50;57.70;;;;;;5075001;28;20485;-75
2021/09/22 09:14:53;;;;;;;14.33;9.53;;;19.60;57.10;;;;;;5075690;28;20428;-77
2021/09/22 09:17:36;;;;;;;11.80;10.17;;;19.70;57.00;;;;;;5075304;28;20448;-76
2021/09/22 09:20:15;;;;;;;16.57;13.10;;;19.90;57.00;;;;;;5074731;28;20429;-76
2021/09/22 09:22:54;;;;;;;20.03;13.63;;;20.00;56.00;;;;;;5074818;28;20456;-78
2021/09/22 09:25:24;;;;;;;15.30;11.13;;;20.10;56.40;;;;;;5074232;28;20440;-77
2021/09/22 09:27:51;;;;;;;12.37;9.03;;;20.20;56.70;;;;;;5074735;28;20429;-76
2021/09/22 09:30:20;;;;;;;15.27;11.50;;;20.40;56.60;;;;;;5074326;28;20487;-76
2021/09/22 09:32:47;;;;;;;15.10;11.57;;;20.70;55.70;;;;;;5074096;28;20469;-77
2021/09/22 09:35:16;;;;;;;14.23;12.73;;;20.90;53.70;;;;;;5074129;28;20807;-77
2021/09/22 09:37:46;;;;;;;14.70;11.93;;;21.10;53.30;;;;;;5073911;28;20946;-77
2021/09/22 09:40:25;;;;;;;17.07;12.27;;;21.20;53.60;;;;;;5074168;28;20449;-76
2021/09/22 09:42:54;;;;;;;13.67;12.27;;;21.30;52.40;;;;;;5074246;28;20475;-76
2021/09/22 09:45:22;;;;;;;15.43;12.70;;;21.40;51.50;;;;;;5074200;28;20926;-76
2021/09/22 09:48:04;;;;;;;14.07;12.57;;;21.50;51.20;;;;;;5074255;28;20448;-76
2021/09/22 09:50:37;;;;;;;12.67;10.87;;;21.40;50.60;;;;;;5073990;28;20480;-77
2021/09/22 09:53:05;;;;;;;12.20;10.90;;;21.50;51.10;;;;;;5073903;28;20464;-76
2021/09/22 09:55:33;;;;;;;15.73;12.70;;;21.60;51.60;;;;;;5073724;28;20977;-77
2021/09/22 09:58:00;;;;;;;13.53;11.40;;;21.70;51.10;;;;;;5073961;28;20452;-77
2021/09/22 10:00:44;;;;;;;13.40;11.27;;;21.70;50.30;;;;;;5074037;28;20445;-77
2021/09/22 10:03:11;;;;;;;12.37;10.07;;;21.90;50.00;;;;;;5074940;28;20460;-77
2021/09/22 10:05:39;;;;;;;11.30;10.23;;;22.20;48.70;;;;;;5074095;28;20444;-77
2021/09/22 10:08:07;;;;;;;12.33;8.70;;;22.60;47.90;;;;;;5074008;28;20445;-78
2021/09/22 10:10:34;;;;;;;10.27;9.27;;;23.10;47.10;;;;;;5073825;28;20492;-78
2021/09/22 10:13:01;;;;;;;16.00;10.00;;;23.50;46.20;;;;;;5073781;28;20482;-76
2021/09/22 10:15:29;;;;;;;9.60;8.60;;;24.00;45.00;;;;;;5073857;28;20498;-76
2021/09/22 10:17:56;;;;;;;11.83;10.57;;;24.50;43.70;;;;;;5073785;28;20456;-77
2021/09/22 10:20:23;;;;;;;11.03;9.93;;;25.10;41.70;;;;;;5073644;28;20514;-76
2021/09/22 10:22:50;;;;;;;13.10;11.80;;;25.50;40.50;;;;;;5073636;28;20464;-77
2021/09/22 10:25:22;;;;;;;10.57;9.10;;;26.00;39.60;;;;;;5073229;28;20444;-76
2021/09/22 10:27:50;;;;;;;13.27;11.97;;;26.40;38.70;;;;;;5073521;28;20445;-75
2021/09/22 10:30:17;;;;;;;9.83;8.83;;;26.70;38.20;;;;;;5073069;28;20484;-76
2021/09/22 10:32:46;;;;;;;14.53;13.13;;;27.10;37.90;;;;;;5073165;28;20809;-77
2021/09/22 10:35:37;;;;;;;16.10;13.60;;;27.60;37.50;;;;;;5073514;28;20429;-77
2021/09/22 10:38:38;;;;;;;13.47;12.10;;;28.00;36.30;;;;;;5073349;28;20425;-76
2021/09/22 10:41:06;;;;;;;16.30;12.63;;;28.50;34.70;;;;;;5073659;28;20440;-76
2021/09/22 10:43:38;;;;;;;14.57;13.13;;;28.90;34.90;;;;;;5073218;28;20464;-77
2021/09/22 10:46:14;;;;;;;12.37;11.13;;;29.10;34.00;;;;;;5072720;28;20452;-76
2021/09/22 10:48:43;;;;;;;11.40;10.40;;;29.10;33.90;;;;;;5073184;28;20429;-76
2021/09/22 10:51:10;;;;;;;8.53;7.63;;;29.30;33.30;;;;;;5073062;28;20448;-76
2021/09/22 10:53:42;;;;;;;14.83;13.30;;;29.70;32.50;;;;;;5073101;28;20465;-76
2021/09/22 10:56:12;;;;;;;13.17;11.83;;;30.20;31.10;;;;;;5072890;28;20839;-76
2021/09/22 10:58:49;;;;;;;9.57;8.67;;;30.50;29.20;;;;;;5073414;28;20436;-77
2021/09/22 11:01:49;;;;;;;8.07;7.27;;;30.70;29.60;;;;;;5073646;28;20439;-78
2021/09/22 11:04:16;;;;;;;13.60;11.80;;;31.00;30.20;;;;;;5068058;28;20954;-76
2021/09/22 11:06:57;;;;;;;14.43;11.17;;;31.30;28.40;;;;;;5073388;28;20448;-77
2021/09/22 11:09:35;;;;;;;13.47;12.07;;;31.50;28.70;;;;;;5073773;28;20472;-77
2021/09/22 11:12:10;;;;;;;15.73;11.90;;;31.70;28.40;;;;;;5074002;28;20981;-77
2021/09/22 11:14:40;;;;;;;10.53;9.63;;;31.80;27.60;;;;;;5075514;28;20466;-77
2021/09/22 11:17:10;;;;;;;13.53;11.53;;;32.20;27.20;;;;;;5074858;28;20479;-77
2021/09/22 11:19:38;;;;;;;13.33;10.13;;;32.60;27.50;;;;;;5074678;28;20478;-77
2021/09/22 11:22:11;;;;;;;13.13;11.40;;;32.90;26.20;;;;;;5074988;28;20476;-77
2021/09/22 11:24:40;;;;;;;12.20;10.90;;;33.20;25.60;;;;;;5075511;28;20428;-77
2021/09/22 11:27:11;;;;;;;13.37;11.50;;;33.30;24.80;;;;;;5073712;28;20483;-77
2021/09/22 11:29:41;;;;;;;13.47;10.37;;;33.50;25.00;;;;;;5072921;28;20464;-77
2021/09/22 11:32:26;;;;;;;14.53;13.20;;;33.80;25.40;;;;;;5072718;28;20525;-77
2021/09/22 11:34:53;;;;;;;26.27;11.37;;;34.20;25.10;;;;;;5073354;28;20429;-77
2021/09/22 11:37:20;;;;;;;9.20;8.33;;;34.40;25.00;;;;;;5072873;28;20474;-77
2021/09/22 11:39:47;;;;;;;12.20;11.00;;;34.80;25.20;;;;;;5072948;28;20792;-77
2021/09/22 11:42:16;;;;;;;11.40;10.20;;;35.10;24.60;;;;;;5072759;28;20464;-77
2021/09/22 11:44:43;;;;;;;11.43;10.50;;;35.40;24.00;;;;;;5075873;28;20525;-78
2021/09/22 11:47:11;;;;;;;16.73;11.33;;;35.70;23.70;;;;;;5075056;28;20448;-78
2021/09/22 11:49:40;;;;;;;13.87;12.47;;;36.00;23.50;;;;;;5076682;28;20498;-78
2021/09/22 11:52:10;;;;;;;23.53;13.40;;;36.30;22.50;;;;;;5077891;28;20478;-76
2021/09/22 11:54:43;;;;;;;13.10;11.80;;;36.50;22.00;;;;;;5076236;28;20197;-76
2021/09/22 11:57:12;;;;;;;15.17;13.07;;;36.60;21.80;;;;;;5081394;28;20424;-77
2021/09/22 11:59:41;;;;;;;12.23;11.23;;;36.30;21.90;;;;;;5085017;28;20451;-77
2021/09/22 12:02:08;;;;;;;15.73;11.93;;;35.90;22.40;;;;;;5079296;28;20460;-78
2021/09/22 12:04:37;;;;;;;15.53;11.53;;;35.60;23.00;;;;;;5079773;28;20809;-78
2021/09/22 12:07:05;;;;;;;11.80;10.27;;;35.30;23.10;;;;;;5078817;28;20475;-76
2021/09/22 12:09:40;;;;;;;13.07;11.80;;;35.10;23.20;;;;;;5077697;28;20479;-78
2021/09/22 12:12:13;;;;;;;11.37;10.37;;;35.10;23.70;;;;;;5078632;28;21022;-78
2021/09/22 12:14:46;;;;;;;10.83;9.73;;;35.00;23.30;;;;;;5078310;28;20795;-78
2021/09/22 12:17:15;;;;;;;17.47;12.53;;;35.00;23.40;;;;;;5076900;28;20432;-78
2021/09/22 12:19:42;;;;;;;15.90;13.90;;;34.80;22.80;;;;;;5078867;28;20451;-78
2021/09/22 12:22:10;;;;;;;16.27;14.50;;;34.60;23.20;;;;;;5077738;28;20475;-78
2021/09/22 12:24:39;;;;;;;14.40;11.33;;;34.50;24.00;;;;;;5079007;28;20451;-77
2021/09/22 12:27:13;;;;;;;13.37;12.00;;;34.50;23.70;;;;;;5078746;28;20451;-78
2021/09/22 12:29:52;;;;;;;16.70;11.50;;;34.90;23.90;;;;;;5079000;28;20464;-78
2021/09/22 12:32:19;;;;;;;12.83;9.47;;;35.30;23.40;;;;;;5078982;28;20475;-78
2021/09/22 12:34:46;;;;;;;17.30;9.37;;;35.80;22.80;;;;;;5078750;28;20444;-78
2021/09/22 12:37:17;;;;;;;10.70;7.80;;;36.10;22.40;;;;;;5078525;28;20463;-78
2021/09/22 12:39:59;;;;;;;16.83;7.93;;;36.60;22.20;;;;;;5076310;28;20451;-76
2021/09/22 12:42:38;;;;;;;9.93;8.37;;;37.00;20.70;;;;;;5077296;28;20467;-77